<?xml version="1.0" encoding="UTF-8" standalone="no" ?>
<gpx xmlns="http://www.topografix.com/GPX/1/1" xmlns:xsi="http://www.w3.org/2001/XMLSchema-instance" xsi:schemaLocation="http://www.topografix.com/GPX/1/1 http://www.topografix.com/GPX/1/1/gpx.xsd" version="1.1" creator="VisuGPX - https://www.visugpx.com">
  <metadata>
    <name>rennemoulin aller</name>
    <desc><![CDATA[rennemoulin aller]]></desc>
  </metadata>
  <trk>
    <name><![CDATA[15 avr. 2014 11:04:23]]></name>
    <cmt><![CDATA[15 avr. 2014 11:04:23]]></cmt>
    <trkseg>
      <trkpt lat="48.87344" lon="2.01556">
        <ele>178</ele>
        <time>2014-04-15T09:04:23Z</time>
      </trkpt>
      <trkpt lat="48.87331" lon="2.01627">
        <ele>142</ele>
        <time>2014-04-15T09:05:00Z</time>
      </trkpt>
      <trkpt lat="48.87303" lon="2.01747">
        <ele>141</ele>
        <time>2014-04-15T09:05:42Z</time>
      </trkpt>
      <trkpt lat="48.87297" lon="2.01774">
        <ele>140</ele>
        <time>2014-04-15T09:05:47Z</time>
      </trkpt>
      <trkpt lat="48.87291" lon="2.01871">
        <ele>178</ele>
        <time>2014-04-15T09:06:26Z</time>
      </trkpt>
      <trkpt lat="48.87292" lon="2.01967">
        <ele>137</ele>
        <time>2014-04-15T09:07:01Z</time>
      </trkpt>
      <trkpt lat="48.87292" lon="2.01994">
        <ele>134</ele>
        <time>2014-04-15T09:07:11Z</time>
      </trkpt>
      <trkpt lat="48.87297" lon="2.02026">
        <ele>132</ele>
        <time>2014-04-15T09:07:26Z</time>
      </trkpt>
      <trkpt lat="48.87304" lon="2.02055">
        <ele>132</ele>
        <time>2014-04-15T09:07:42Z</time>
      </trkpt>
      <trkpt lat="48.87307" lon="2.02087">
        <ele>133</ele>
        <time>2014-04-15T09:07:57Z</time>
      </trkpt>
      <trkpt lat="48.87289" lon="2.02104">
        <ele>137</ele>
        <time>2014-04-15T09:08:21Z</time>
      </trkpt>
      <trkpt lat="48.87269" lon="2.02103">
        <ele>139</ele>
        <time>2014-04-15T09:08:26Z</time>
      </trkpt>
      <trkpt lat="48.87257" lon="2.02102">
        <ele>140</ele>
        <time>2014-04-15T09:08:29Z</time>
      </trkpt>
      <trkpt lat="48.87245" lon="2.02099">
        <ele>140</ele>
        <time>2014-04-15T09:08:32Z</time>
      </trkpt>
      <trkpt lat="48.87229" lon="2.02095">
        <ele>141</ele>
        <time>2014-04-15T09:08:37Z</time>
      </trkpt>
      <trkpt lat="48.87216" lon="2.02095">
        <ele>142</ele>
        <time>2014-04-15T09:08:41Z</time>
      </trkpt>
      <trkpt lat="48.87207" lon="2.02095">
        <ele>143</ele>
        <time>2014-04-15T09:08:44Z</time>
      </trkpt>
      <trkpt lat="48.87196" lon="2.02094">
        <ele>143</ele>
        <time>2014-04-15T09:08:47Z</time>
      </trkpt>
      <trkpt lat="48.87186" lon="2.02094">
        <ele>143</ele>
        <time>2014-04-15T09:08:50Z</time>
      </trkpt>
      <trkpt lat="48.87172" lon="2.02092">
        <ele>143</ele>
        <time>2014-04-15T09:08:54Z</time>
      </trkpt>
      <trkpt lat="48.87156" lon="2.02095">
        <ele>144</ele>
        <time>2014-04-15T09:09:03Z</time>
      </trkpt>
      <trkpt lat="48.87098" lon="2.02101">
        <ele>146</ele>
        <time>2014-04-15T09:09:21Z</time>
      </trkpt>
      <trkpt lat="48.87076" lon="2.021">
        <ele>147</ele>
        <time>2014-04-15T09:09:29Z</time>
      </trkpt>
      <trkpt lat="48.8706" lon="2.02099">
        <ele>147</ele>
        <time>2014-04-15T09:09:34Z</time>
      </trkpt>
      <trkpt lat="48.87045" lon="2.02097">
        <ele>148</ele>
        <time>2014-04-15T09:09:39Z</time>
      </trkpt>
      <trkpt lat="48.8704" lon="2.02096">
        <ele>148</ele>
        <time>2014-04-15T09:09:40Z</time>
      </trkpt>
      <trkpt lat="48.87029" lon="2.02096">
        <ele>148</ele>
        <time>2014-04-15T09:09:43Z</time>
      </trkpt>
      <trkpt lat="48.8702" lon="2.02096">
        <ele>148</ele>
        <time>2014-04-15T09:09:46Z</time>
      </trkpt>
      <trkpt lat="48.87005" lon="2.02098">
        <ele>147</ele>
        <time>2014-04-15T09:09:51Z</time>
      </trkpt>
      <trkpt lat="48.86983" lon="2.0215">
        <ele>148</ele>
        <time>2014-04-15T09:10:07Z</time>
      </trkpt>
      <trkpt lat="48.86976" lon="2.02173">
        <ele>148</ele>
        <time>2014-04-15T09:10:12Z</time>
      </trkpt>
      <trkpt lat="48.86966" lon="2.02204">
        <ele>147</ele>
        <time>2014-04-15T09:10:20Z</time>
      </trkpt>
      <trkpt lat="48.8696" lon="2.02226">
        <ele>146</ele>
        <time>2014-04-15T09:10:25Z</time>
      </trkpt>
      <trkpt lat="48.86951" lon="2.02257">
        <ele>144</ele>
        <time>2014-04-15T09:10:31Z</time>
      </trkpt>
      <trkpt lat="48.86947" lon="2.02272">
        <ele>144</ele>
        <time>2014-04-15T09:10:34Z</time>
      </trkpt>
      <trkpt lat="48.86943" lon="2.02286">
        <ele>143</ele>
        <time>2014-04-15T09:10:37Z</time>
      </trkpt>
      <trkpt lat="48.86939" lon="2.02302">
        <ele>142</ele>
        <time>2014-04-15T09:10:40Z</time>
      </trkpt>
      <trkpt lat="48.86935" lon="2.02316">
        <ele>142</ele>
        <time>2014-04-15T09:10:43Z</time>
      </trkpt>
      <trkpt lat="48.86932" lon="2.02324">
        <ele>141</ele>
        <time>2014-04-15T09:10:45Z</time>
      </trkpt>
      <trkpt lat="48.86928" lon="2.02338">
        <ele>141</ele>
        <time>2014-04-15T09:10:48Z</time>
      </trkpt>
      <trkpt lat="48.86923" lon="2.02351">
        <ele>140</ele>
        <time>2014-04-15T09:10:51Z</time>
      </trkpt>
      <trkpt lat="48.86919" lon="2.02364">
        <ele>140</ele>
        <time>2014-04-15T09:10:54Z</time>
      </trkpt>
      <trkpt lat="48.86911" lon="2.02383">
        <ele>139</ele>
        <time>2014-04-15T09:10:59Z</time>
      </trkpt>
      <trkpt lat="48.86903" lon="2.02408">
        <ele>137</ele>
        <time>2014-04-15T09:11:11Z</time>
      </trkpt>
      <trkpt lat="48.86897" lon="2.02433">
        <ele>137</ele>
        <time>2014-04-15T09:11:18Z</time>
      </trkpt>
      <trkpt lat="48.86886" lon="2.02471">
        <ele>136</ele>
        <time>2014-04-15T09:11:26Z</time>
      </trkpt>
      <trkpt lat="48.86877" lon="2.02493">
        <ele>134</ele>
        <time>2014-04-15T09:11:31Z</time>
      </trkpt>
      <trkpt lat="48.86867" lon="2.02521">
        <ele>132</ele>
        <time>2014-04-15T09:11:38Z</time>
      </trkpt>
      <trkpt lat="48.86859" lon="2.02547">
        <ele>132</ele>
        <time>2014-04-15T09:11:44Z</time>
      </trkpt>
      <trkpt lat="48.86846" lon="2.02582">
        <ele>130</ele>
        <time>2014-04-15T09:11:52Z</time>
      </trkpt>
      <trkpt lat="48.86837" lon="2.02607">
        <ele>129</ele>
        <time>2014-04-15T09:11:57Z</time>
      </trkpt>
      <trkpt lat="48.8683" lon="2.02638">
        <ele>128</ele>
        <time>2014-04-15T09:12:08Z</time>
      </trkpt>
      <trkpt lat="48.86824" lon="2.02666">
        <ele>129</ele>
        <time>2014-04-15T09:12:14Z</time>
      </trkpt>
      <trkpt lat="48.86819" lon="2.02692">
        <ele>130</ele>
        <time>2014-04-15T09:12:19Z</time>
      </trkpt>
      <trkpt lat="48.86814" lon="2.02712">
        <ele>130</ele>
        <time>2014-04-15T09:12:22Z</time>
      </trkpt>
      <trkpt lat="48.86811" lon="2.02724">
        <ele>130</ele>
        <time>2014-04-15T09:12:24Z</time>
      </trkpt>
      <trkpt lat="48.86807" lon="2.02735">
        <ele>131</ele>
        <time>2014-04-15T09:12:26Z</time>
      </trkpt>
      <trkpt lat="48.868" lon="2.02753">
        <ele>131</ele>
        <time>2014-04-15T09:12:29Z</time>
      </trkpt>
      <trkpt lat="48.86796" lon="2.02764">
        <ele>131</ele>
        <time>2014-04-15T09:12:31Z</time>
      </trkpt>
      <trkpt lat="48.86791" lon="2.02775">
        <ele>131</ele>
        <time>2014-04-15T09:12:33Z</time>
      </trkpt>
      <trkpt lat="48.86787" lon="2.02786">
        <ele>132</ele>
        <time>2014-04-15T09:12:35Z</time>
      </trkpt>
      <trkpt lat="48.86782" lon="2.02801">
        <ele>132</ele>
        <time>2014-04-15T09:12:38Z</time>
      </trkpt>
      <trkpt lat="48.86776" lon="2.02821">
        <ele>133</ele>
        <time>2014-04-15T09:12:43Z</time>
      </trkpt>
      <trkpt lat="48.8677" lon="2.02834">
        <ele>133</ele>
        <time>2014-04-15T09:12:47Z</time>
      </trkpt>
      <trkpt lat="48.86766" lon="2.02847">
        <ele>134</ele>
        <time>2014-04-15T09:12:50Z</time>
      </trkpt>
      <trkpt lat="48.86762" lon="2.02859">
        <ele>134</ele>
        <time>2014-04-15T09:12:53Z</time>
      </trkpt>
      <trkpt lat="48.86756" lon="2.02882">
        <ele>134</ele>
        <time>2014-04-15T09:12:58Z</time>
      </trkpt>
      <trkpt lat="48.8675" lon="2.02902">
        <ele>134</ele>
        <time>2014-04-15T09:13:02Z</time>
      </trkpt>
      <trkpt lat="48.86745" lon="2.02919">
        <ele>134</ele>
        <time>2014-04-15T09:13:05Z</time>
      </trkpt>
      <trkpt lat="48.86741" lon="2.02932">
        <ele>133</ele>
        <time>2014-04-15T09:13:08Z</time>
      </trkpt>
      <trkpt lat="48.86738" lon="2.02946">
        <ele>133</ele>
        <time>2014-04-15T09:13:11Z</time>
      </trkpt>
      <trkpt lat="48.86735" lon="2.0296">
        <ele>132</ele>
        <time>2014-04-15T09:13:14Z</time>
      </trkpt>
      <trkpt lat="48.86731" lon="2.02973">
        <ele>132</ele>
        <time>2014-04-15T09:13:17Z</time>
      </trkpt>
      <trkpt lat="48.86728" lon="2.02984">
        <ele>132</ele>
        <time>2014-04-15T09:13:20Z</time>
      </trkpt>
      <trkpt lat="48.86722" lon="2.02997">
        <ele>131</ele>
        <time>2014-04-15T09:13:24Z</time>
      </trkpt>
      <trkpt lat="48.86717" lon="2.03011">
        <ele>131</ele>
        <time>2014-04-15T09:13:28Z</time>
      </trkpt>
      <trkpt lat="48.86713" lon="2.03021">
        <ele>131</ele>
        <time>2014-04-15T09:13:31Z</time>
      </trkpt>
      <trkpt lat="48.86711" lon="2.03035">
        <ele>130</ele>
        <time>2014-04-15T09:13:35Z</time>
      </trkpt>
      <trkpt lat="48.86708" lon="2.03047">
        <ele>130</ele>
        <time>2014-04-15T09:13:38Z</time>
      </trkpt>
      <trkpt lat="48.86703" lon="2.03061">
        <ele>130</ele>
        <time>2014-04-15T09:13:41Z</time>
      </trkpt>
      <trkpt lat="48.867" lon="2.03074">
        <ele>131</ele>
        <time>2014-04-15T09:13:44Z</time>
      </trkpt>
      <trkpt lat="48.86696" lon="2.03088">
        <ele>131</ele>
        <time>2014-04-15T09:13:47Z</time>
      </trkpt>
      <trkpt lat="48.86693" lon="2.031">
        <ele>131</ele>
        <time>2014-04-15T09:13:50Z</time>
      </trkpt>
      <trkpt lat="48.86689" lon="2.03113">
        <ele>131</ele>
        <time>2014-04-15T09:13:53Z</time>
      </trkpt>
      <trkpt lat="48.86673" lon="2.03143">
        <ele>132</ele>
        <time>2014-04-15T09:14:06Z</time>
      </trkpt>
      <trkpt lat="48.86658" lon="2.03154">
        <ele>134</ele>
        <time>2014-04-15T09:14:19Z</time>
      </trkpt>
      <trkpt lat="48.86649" lon="2.03156">
        <ele>134</ele>
        <time>2014-04-15T09:14:26Z</time>
      </trkpt>
      <trkpt lat="48.86636" lon="2.03174">
        <ele>133</ele>
        <time>2014-04-15T09:14:42Z</time>
      </trkpt>
      <trkpt lat="48.86631" lon="2.03193">
        <ele>129</ele>
        <time>2014-04-15T09:14:53Z</time>
      </trkpt>
      <trkpt lat="48.86626" lon="2.03207">
        <ele>126</ele>
        <time>2014-04-15T09:15:01Z</time>
      </trkpt>
      <trkpt lat="48.8661" lon="2.03233">
        <ele>124</ele>
        <time>2014-04-15T09:15:19Z</time>
      </trkpt>
      <trkpt lat="48.86603" lon="2.03268">
        <ele>122</ele>
        <time>2014-04-15T09:15:40Z</time>
      </trkpt>
      <trkpt lat="48.86606" lon="2.03301">
        <ele>119</ele>
        <time>2014-04-15T09:16:06Z</time>
      </trkpt>
      <trkpt lat="48.8661" lon="2.03328">
        <ele>119</ele>
        <time>2014-04-15T09:16:16Z</time>
      </trkpt>
      <trkpt lat="48.86613" lon="2.03342">
        <ele>118</ele>
        <time>2014-04-15T09:16:40Z</time>
      </trkpt>
      <trkpt lat="48.86606" lon="2.0336">
        <ele>119</ele>
        <time>2014-04-15T09:16:56Z</time>
      </trkpt>
      <trkpt lat="48.86601" lon="2.03371">
        <ele>119</ele>
        <time>2014-04-15T09:17:03Z</time>
      </trkpt>
      <trkpt lat="48.86594" lon="2.03392">
        <ele>118</ele>
        <time>2014-04-15T09:17:20Z</time>
      </trkpt>
      <trkpt lat="48.86584" lon="2.03423">
        <ele>117</ele>
        <time>2014-04-15T09:17:46Z</time>
      </trkpt>
      <trkpt lat="48.86579" lon="2.03451">
        <ele>116</ele>
        <time>2014-04-15T09:18:00Z</time>
      </trkpt>
      <trkpt lat="48.86575" lon="2.03477">
        <ele>116</ele>
        <time>2014-04-15T09:18:14Z</time>
      </trkpt>
      <trkpt lat="48.86571" lon="2.0349">
        <ele>116</ele>
        <time>2014-04-15T09:18:21Z</time>
      </trkpt>
      <trkpt lat="48.86566" lon="2.03501">
        <ele>117</ele>
        <time>2014-04-15T09:18:29Z</time>
      </trkpt>
      <trkpt lat="48.86548" lon="2.03513">
        <ele>117</ele>
        <time>2014-04-15T09:18:45Z</time>
      </trkpt>
      <trkpt lat="48.86532" lon="2.03521">
        <ele>119</ele>
        <time>2014-04-15T09:18:59Z</time>
      </trkpt>
      <trkpt lat="48.86514" lon="2.03534">
        <ele>120</ele>
        <time>2014-04-15T09:19:16Z</time>
      </trkpt>
      <trkpt lat="48.86505" lon="2.03538">
        <ele>120</ele>
        <time>2014-04-15T09:19:22Z</time>
      </trkpt>
      <trkpt lat="48.86497" lon="2.03542">
        <ele>121</ele>
        <time>2014-04-15T09:19:25Z</time>
      </trkpt>
      <trkpt lat="48.86485" lon="2.03548">
        <ele>121</ele>
        <time>2014-04-15T09:19:28Z</time>
      </trkpt>
      <trkpt lat="48.86478" lon="2.03552">
        <ele>121</ele>
        <time>2014-04-15T09:19:30Z</time>
      </trkpt>
      <trkpt lat="48.8647" lon="2.03556">
        <ele>121</ele>
        <time>2014-04-15T09:19:32Z</time>
      </trkpt>
      <trkpt lat="48.86461" lon="2.0356">
        <ele>121</ele>
        <time>2014-04-15T09:19:35Z</time>
      </trkpt>
      <trkpt lat="48.86451" lon="2.03565">
        <ele>122</ele>
        <time>2014-04-15T09:19:38Z</time>
      </trkpt>
      <trkpt lat="48.86443" lon="2.03569">
        <ele>122</ele>
        <time>2014-04-15T09:19:41Z</time>
      </trkpt>
      <trkpt lat="48.86434" lon="2.03575">
        <ele>122</ele>
        <time>2014-04-15T09:19:45Z</time>
      </trkpt>
      <trkpt lat="48.86427" lon="2.03579">
        <ele>122</ele>
        <time>2014-04-15T09:19:48Z</time>
      </trkpt>
      <trkpt lat="48.86418" lon="2.03584">
        <ele>122</ele>
        <time>2014-04-15T09:19:51Z</time>
      </trkpt>
      <trkpt lat="48.86411" lon="2.03588">
        <ele>122</ele>
        <time>2014-04-15T09:19:53Z</time>
      </trkpt>
      <trkpt lat="48.86402" lon="2.03594">
        <ele>122</ele>
        <time>2014-04-15T09:19:56Z</time>
      </trkpt>
      <trkpt lat="48.86392" lon="2.036">
        <ele>121</ele>
        <time>2014-04-15T09:19:59Z</time>
      </trkpt>
      <trkpt lat="48.86382" lon="2.03606">
        <ele>121</ele>
        <time>2014-04-15T09:20:02Z</time>
      </trkpt>
      <trkpt lat="48.86372" lon="2.03611">
        <ele>121</ele>
        <time>2014-04-15T09:20:05Z</time>
      </trkpt>
      <trkpt lat="48.86362" lon="2.03619">
        <ele>121</ele>
        <time>2014-04-15T09:20:08Z</time>
      </trkpt>
      <trkpt lat="48.86355" lon="2.03624">
        <ele>121</ele>
        <time>2014-04-15T09:20:10Z</time>
      </trkpt>
      <trkpt lat="48.86346" lon="2.03632">
        <ele>121</ele>
        <time>2014-04-15T09:20:13Z</time>
      </trkpt>
      <trkpt lat="48.86337" lon="2.03638">
        <ele>121</ele>
        <time>2014-04-15T09:20:16Z</time>
      </trkpt>
      <trkpt lat="48.86328" lon="2.03644">
        <ele>121</ele>
        <time>2014-04-15T09:20:19Z</time>
      </trkpt>
      <trkpt lat="48.86319" lon="2.03649">
        <ele>121</ele>
        <time>2014-04-15T09:20:22Z</time>
      </trkpt>
      <trkpt lat="48.86309" lon="2.03654">
        <ele>121</ele>
        <time>2014-04-15T09:20:25Z</time>
      </trkpt>
      <trkpt lat="48.863" lon="2.0366">
        <ele>121</ele>
        <time>2014-04-15T09:20:28Z</time>
      </trkpt>
      <trkpt lat="48.86291" lon="2.03664">
        <ele>121</ele>
        <time>2014-04-15T09:20:31Z</time>
      </trkpt>
      <trkpt lat="48.86282" lon="2.03666">
        <ele>121</ele>
        <time>2014-04-15T09:20:34Z</time>
      </trkpt>
      <trkpt lat="48.86273" lon="2.03669">
        <ele>121</ele>
        <time>2014-04-15T09:20:37Z</time>
      </trkpt>
      <trkpt lat="48.86259" lon="2.03677">
        <ele>121</ele>
        <time>2014-04-15T09:20:42Z</time>
      </trkpt>
      <trkpt lat="48.86251" lon="2.03685">
        <ele>120</ele>
        <time>2014-04-15T09:20:46Z</time>
      </trkpt>
      <trkpt lat="48.86245" lon="2.03693">
        <ele>120</ele>
        <time>2014-04-15T09:20:50Z</time>
      </trkpt>
      <trkpt lat="48.86237" lon="2.037">
        <ele>119</ele>
        <time>2014-04-15T09:20:54Z</time>
      </trkpt>
      <trkpt lat="48.86218" lon="2.03714">
        <ele>117</ele>
        <time>2014-04-15T09:21:07Z</time>
      </trkpt>
      <trkpt lat="48.86199" lon="2.0372">
        <ele>116</ele>
        <time>2014-04-15T09:21:18Z</time>
      </trkpt>
      <trkpt lat="48.86182" lon="2.03725">
        <ele>114</ele>
        <time>2014-04-15T09:21:28Z</time>
      </trkpt>
      <trkpt lat="48.86163" lon="2.03732">
        <ele>112</ele>
        <time>2014-04-15T09:21:41Z</time>
      </trkpt>
      <trkpt lat="48.86145" lon="2.03745">
        <ele>110</ele>
        <time>2014-04-15T09:22:01Z</time>
      </trkpt>
      <trkpt lat="48.86131" lon="2.03756">
        <ele>109</ele>
        <time>2014-04-15T09:22:12Z</time>
      </trkpt>
      <trkpt lat="48.86119" lon="2.0376">
        <ele>108</ele>
        <time>2014-04-15T09:22:18Z</time>
      </trkpt>
      <trkpt lat="48.86111" lon="2.03765">
        <ele>107</ele>
        <time>2014-04-15T09:22:23Z</time>
      </trkpt>
      <trkpt lat="48.86093" lon="2.03769">
        <ele>106</ele>
        <time>2014-04-15T09:22:35Z</time>
      </trkpt>
      <trkpt lat="48.86077" lon="2.03761">
        <ele>105</ele>
        <time>2014-04-15T09:22:48Z</time>
      </trkpt>
      <trkpt lat="48.86062" lon="2.03752">
        <ele>106</ele>
        <time>2014-04-15T09:23:01Z</time>
      </trkpt>
      <trkpt lat="48.86044" lon="2.03741">
        <ele>107</ele>
        <time>2014-04-15T09:23:17Z</time>
      </trkpt>
      <trkpt lat="48.86028" lon="2.03734">
        <ele>108</ele>
        <time>2014-04-15T09:23:30Z</time>
      </trkpt>
      <trkpt lat="48.86012" lon="2.03727">
        <ele>108</ele>
        <time>2014-04-15T09:23:43Z</time>
      </trkpt>
      <trkpt lat="48.85997" lon="2.03719">
        <ele>108</ele>
        <time>2014-04-15T09:23:57Z</time>
      </trkpt>
      <trkpt lat="48.85986" lon="2.03713">
        <ele>107</ele>
        <time>2014-04-15T09:24:06Z</time>
      </trkpt>
      <trkpt lat="48.85977" lon="2.03707">
        <ele>107</ele>
        <time>2014-04-15T09:24:12Z</time>
      </trkpt>
      <trkpt lat="48.85967" lon="2.03701">
        <ele>106</ele>
        <time>2014-04-15T09:24:19Z</time>
      </trkpt>
      <trkpt lat="48.85952" lon="2.03692">
        <ele>105</ele>
        <time>2014-04-15T09:24:29Z</time>
      </trkpt>
      <trkpt lat="48.85943" lon="2.03688">
        <ele>105</ele>
        <time>2014-04-15T09:24:34Z</time>
      </trkpt>
      <trkpt lat="48.85934" lon="2.03683">
        <ele>105</ele>
        <time>2014-04-15T09:24:39Z</time>
      </trkpt>
      <trkpt lat="48.85917" lon="2.03678">
        <ele>104</ele>
        <time>2014-04-15T09:24:49Z</time>
      </trkpt>
      <trkpt lat="48.85902" lon="2.03671">
        <ele>103</ele>
        <time>2014-04-15T09:25:02Z</time>
      </trkpt>
      <trkpt lat="48.85886" lon="2.03662">
        <ele>101</ele>
        <time>2014-04-15T09:25:15Z</time>
      </trkpt>
      <trkpt lat="48.8587" lon="2.03649">
        <ele>101</ele>
        <time>2014-04-15T09:25:29Z</time>
      </trkpt>
      <trkpt lat="48.85854" lon="2.03639">
        <ele>99</ele>
        <time>2014-04-15T09:25:38Z</time>
      </trkpt>
      <trkpt lat="48.85834" lon="2.03631">
        <ele>98</ele>
        <time>2014-04-15T09:25:51Z</time>
      </trkpt>
      <trkpt lat="48.85822" lon="2.03646">
        <ele>96</ele>
        <time>2014-04-15T09:26:04Z</time>
      </trkpt>
      <trkpt lat="48.85817" lon="2.03671">
        <ele>95</ele>
        <time>2014-04-15T09:26:21Z</time>
      </trkpt>
      <trkpt lat="48.8581" lon="2.03701">
        <ele>94</ele>
        <time>2014-04-15T09:26:42Z</time>
      </trkpt>
      <trkpt lat="48.85798" lon="2.03728">
        <ele>95</ele>
        <time>2014-04-15T09:26:50Z</time>
      </trkpt>
      <trkpt lat="48.85793" lon="2.03753">
        <ele>96</ele>
        <time>2014-04-15T09:26:58Z</time>
      </trkpt>
      <trkpt lat="48.85783" lon="2.03784">
        <ele>96</ele>
        <time>2014-04-15T09:27:05Z</time>
      </trkpt>
      <trkpt lat="48.85774" lon="2.03803">
        <ele>96</ele>
        <time>2014-04-15T09:27:08Z</time>
      </trkpt>
      <trkpt lat="48.85752" lon="2.03848">
        <ele>96</ele>
        <time>2014-04-15T09:27:29Z</time>
      </trkpt>
      <trkpt lat="48.85737" lon="2.03869">
        <ele>98</ele>
        <time>2014-04-15T09:27:36Z</time>
      </trkpt>
      <trkpt lat="48.85721" lon="2.03878">
        <ele>100</ele>
        <time>2014-04-15T09:27:44Z</time>
      </trkpt>
      <trkpt lat="48.85707" lon="2.03931">
        <ele>101</ele>
        <time>2014-04-15T09:28:10Z</time>
      </trkpt>
      <trkpt lat="48.85696" lon="2.03955">
        <ele>102</ele>
        <time>2014-04-15T09:28:18Z</time>
      </trkpt>
      <trkpt lat="48.85684" lon="2.03979">
        <ele>103</ele>
        <time>2014-04-15T09:28:28Z</time>
      </trkpt>
      <trkpt lat="48.85667" lon="2.04016">
        <ele>103</ele>
        <time>2014-04-15T09:28:36Z</time>
      </trkpt>
      <trkpt lat="48.85649" lon="2.04049">
        <ele>102</ele>
        <time>2014-04-15T09:28:49Z</time>
      </trkpt>
      <trkpt lat="48.85642" lon="2.04073">
        <ele>102</ele>
        <time>2014-04-15T09:28:54Z</time>
      </trkpt>
      <trkpt lat="48.85626" lon="2.04123">
        <ele>101</ele>
        <time>2014-04-15T09:29:06Z</time>
      </trkpt>
      <trkpt lat="48.85611" lon="2.04136">
        <ele>99</ele>
        <time>2014-04-15T09:29:15Z</time>
      </trkpt>
      <trkpt lat="48.85579" lon="2.0415">
        <ele>99</ele>
        <time>2014-04-15T09:29:27Z</time>
      </trkpt>
      <trkpt lat="48.85558" lon="2.04157">
        <ele>98</ele>
        <time>2014-04-15T09:29:32Z</time>
      </trkpt>
      <trkpt lat="48.85541" lon="2.04164">
        <ele>98</ele>
        <time>2014-04-15T09:29:41Z</time>
      </trkpt>
      <trkpt lat="48.8552" lon="2.04174">
        <ele>100</ele>
        <time>2014-04-15T09:29:53Z</time>
      </trkpt>
      <trkpt lat="48.85505" lon="2.0418">
        <ele>101</ele>
        <time>2014-04-15T09:30:03Z</time>
      </trkpt>
      <trkpt lat="48.85489" lon="2.04183">
        <ele>101</ele>
        <time>2014-04-15T09:30:14Z</time>
      </trkpt>
      <trkpt lat="48.85473" lon="2.04178">
        <ele>100</ele>
        <time>2014-04-15T09:30:32Z</time>
      </trkpt>
      <trkpt lat="48.85413" lon="2.04167">
        <ele>125.9</ele>
        <time>2014-04-15T09:31:34Z</time>
      </trkpt>
      <trkpt lat="48.85368" lon="2.0418">
        <ele>124.2</ele>
        <time>2014-04-15T09:32:10Z</time>
      </trkpt>
      <trkpt lat="48.85345" lon="2.04233">
        <ele>123</ele>
        <time>2014-04-15T09:32:41Z</time>
      </trkpt>
      <trkpt lat="48.85326" lon="2.04291">
        <ele>99</ele>
        <time>2014-04-15T09:33:15Z</time>
      </trkpt>
      <trkpt lat="48.85315" lon="2.04341">
        <ele>123.3</ele>
        <time>2014-04-15T09:33:51Z</time>
      </trkpt>
      <trkpt lat="48.85298" lon="2.044">
        <ele>99</ele>
        <time>2014-04-15T09:34:19Z</time>
      </trkpt>
      <trkpt lat="48.8528" lon="2.04453">
        <ele>98</ele>
        <time>2014-04-15T09:34:49Z</time>
      </trkpt>
      <trkpt lat="48.85267" lon="2.04494">
        <ele>96</ele>
        <time>2014-04-15T09:35:12Z</time>
      </trkpt>
      <trkpt lat="48.85259" lon="2.04545">
        <ele>129.2</ele>
        <time>2014-04-15T09:35:42Z</time>
      </trkpt>
      <trkpt lat="48.85245" lon="2.04607">
        <ele>130</ele>
        <time>2014-04-15T09:36:12Z</time>
      </trkpt>
      <trkpt lat="48.85235" lon="2.04666">
        <ele>130</ele>
        <time>2014-04-15T09:36:42Z</time>
      </trkpt>
      <trkpt lat="48.85227" lon="2.04738">
        <ele>95</ele>
        <time>2014-04-15T09:37:13Z</time>
      </trkpt>
      <trkpt lat="48.85211" lon="2.04817">
        <ele>132.6</ele>
        <time>2014-04-15T09:38:09Z</time>
      </trkpt>
      <trkpt lat="48.85204" lon="2.04882">
        <ele>133.6</ele>
        <time>2014-04-15T09:38:32Z</time>
      </trkpt>
      <trkpt lat="48.85205" lon="2.04948">
        <ele>136.1</ele>
        <time>2014-04-15T09:38:59Z</time>
      </trkpt>
      <trkpt lat="48.85189" lon="2.0496">
        <ele>95</ele>
        <time>2014-04-15T09:39:11Z</time>
      </trkpt>
      <trkpt lat="48.85163" lon="2.04962">
        <ele>98</ele>
        <time>2014-04-15T09:39:28Z</time>
      </trkpt>
      <trkpt lat="48.85149" lon="2.04954">
        <ele>101</ele>
        <time>2014-04-15T09:39:40Z</time>
      </trkpt>
      <trkpt lat="48.85135" lon="2.04942">
        <ele>103</ele>
        <time>2014-04-15T09:39:49Z</time>
      </trkpt>
      <trkpt lat="48.85118" lon="2.04938">
        <ele>106</ele>
        <time>2014-04-15T09:40:01Z</time>
      </trkpt>
      <trkpt lat="48.85105" lon="2.05021">
        <ele>136.6</ele>
        <time>2014-04-15T09:40:53Z</time>
      </trkpt>
      <trkpt lat="48.85077" lon="2.05075">
        <ele>136.6</ele>
        <time>2014-04-15T09:41:16Z</time>
      </trkpt>
      <trkpt lat="48.85065" lon="2.05094">
        <ele>107</ele>
        <time>2014-04-15T09:41:28Z</time>
      </trkpt>
      <trkpt lat="48.8502" lon="2.0515">
        <ele>135.4</ele>
        <time>2014-04-15T09:42:30Z</time>
      </trkpt>
      <trkpt lat="48.84975" lon="2.05196">
        <ele>133.2</ele>
        <time>2014-04-15T09:43:06Z</time>
      </trkpt>
      <trkpt lat="48.84904" lon="2.05243">
        <ele>106</ele>
        <time>2014-04-15T09:43:56Z</time>
      </trkpt>
      <trkpt lat="48.8489" lon="2.05254">
        <ele>105</ele>
        <time>2014-04-15T09:44:01Z</time>
      </trkpt>
      <trkpt lat="48.84869" lon="2.05267">
        <ele>102</ele>
        <time>2014-04-15T09:44:11Z</time>
      </trkpt>
      <trkpt lat="48.84855" lon="2.05278">
        <ele>98</ele>
        <time>2014-04-15T09:44:24Z</time>
      </trkpt>
      <trkpt lat="48.84838" lon="2.05291">
        <ele>95</ele>
        <time>2014-04-15T09:44:42Z</time>
      </trkpt>
      <trkpt lat="48.84823" lon="2.05298">
        <ele>93</ele>
        <time>2014-04-15T09:44:52Z</time>
      </trkpt>
      <trkpt lat="48.84809" lon="2.05307">
        <ele>92</ele>
        <time>2014-04-15T09:45:03Z</time>
      </trkpt>
      <trkpt lat="48.84789" lon="2.05319">
        <ele>90</ele>
        <time>2014-04-15T09:45:24Z</time>
      </trkpt>
      <trkpt lat="48.84773" lon="2.05329">
        <ele>91</ele>
        <time>2014-04-15T09:45:36Z</time>
      </trkpt>
      <trkpt lat="48.84758" lon="2.05338">
        <ele>92</ele>
        <time>2014-04-15T09:45:50Z</time>
      </trkpt>
      <trkpt lat="48.84741" lon="2.05349">
        <ele>93</ele>
        <time>2014-04-15T09:46:02Z</time>
      </trkpt>
      <trkpt lat="48.8473" lon="2.05356">
        <ele>93</ele>
        <time>2014-04-15T09:46:05Z</time>
      </trkpt>
      <trkpt lat="48.84723" lon="2.05363">
        <ele>94</ele>
        <time>2014-04-15T09:46:07Z</time>
      </trkpt>
      <trkpt lat="48.84714" lon="2.05371">
        <ele>94</ele>
        <time>2014-04-15T09:46:09Z</time>
      </trkpt>
      <trkpt lat="48.84706" lon="2.05379">
        <ele>94</ele>
        <time>2014-04-15T09:46:11Z</time>
      </trkpt>
      <trkpt lat="48.84698" lon="2.05387">
        <ele>94</ele>
        <time>2014-04-15T09:46:13Z</time>
      </trkpt>
      <trkpt lat="48.84689" lon="2.05394">
        <ele>94</ele>
        <time>2014-04-15T09:46:15Z</time>
      </trkpt>
      <trkpt lat="48.8468" lon="2.054">
        <ele>94</ele>
        <time>2014-04-15T09:46:17Z</time>
      </trkpt>
      <trkpt lat="48.84671" lon="2.05405">
        <ele>94</ele>
        <time>2014-04-15T09:46:19Z</time>
      </trkpt>
      <trkpt lat="48.84663" lon="2.0541">
        <ele>94</ele>
        <time>2014-04-15T09:46:21Z</time>
      </trkpt>
      <trkpt lat="48.84655" lon="2.05415">
        <ele>94</ele>
        <time>2014-04-15T09:46:23Z</time>
      </trkpt>
      <trkpt lat="48.84647" lon="2.05419">
        <ele>94</ele>
        <time>2014-04-15T09:46:25Z</time>
      </trkpt>
      <trkpt lat="48.8464" lon="2.05424">
        <ele>94</ele>
        <time>2014-04-15T09:46:27Z</time>
      </trkpt>
      <trkpt lat="48.84633" lon="2.0543">
        <ele>94</ele>
        <time>2014-04-15T09:46:29Z</time>
      </trkpt>
      <trkpt lat="48.84625" lon="2.05435">
        <ele>94</ele>
        <time>2014-04-15T09:46:31Z</time>
      </trkpt>
      <trkpt lat="48.84618" lon="2.0544">
        <ele>94</ele>
        <time>2014-04-15T09:46:33Z</time>
      </trkpt>
      <trkpt lat="48.84604" lon="2.05449">
        <ele>94</ele>
        <time>2014-04-15T09:46:37Z</time>
      </trkpt>
      <trkpt lat="48.84595" lon="2.05455">
        <ele>94</ele>
        <time>2014-04-15T09:46:40Z</time>
      </trkpt>
      <trkpt lat="48.84589" lon="2.05461">
        <ele>94</ele>
        <time>2014-04-15T09:46:42Z</time>
      </trkpt>
      <trkpt lat="48.84583" lon="2.05465">
        <ele>94</ele>
        <time>2014-04-15T09:46:44Z</time>
      </trkpt>
      <trkpt lat="48.84576" lon="2.0547">
        <ele>95</ele>
        <time>2014-04-15T09:46:46Z</time>
      </trkpt>
      <trkpt lat="48.84567" lon="2.05477">
        <ele>95</ele>
        <time>2014-04-15T09:46:49Z</time>
      </trkpt>
      <trkpt lat="48.84562" lon="2.05482">
        <ele>95</ele>
        <time>2014-04-15T09:46:51Z</time>
      </trkpt>
      <trkpt lat="48.84556" lon="2.05486">
        <ele>95</ele>
        <time>2014-04-15T09:46:53Z</time>
      </trkpt>
      <trkpt lat="48.84548" lon="2.05491">
        <ele>95</ele>
        <time>2014-04-15T09:46:56Z</time>
      </trkpt>
      <trkpt lat="48.8454" lon="2.05492">
        <ele>95</ele>
        <time>2014-04-15T09:46:59Z</time>
      </trkpt>
      <trkpt lat="48.84538" lon="2.0547">
        <ele>95</ele>
        <time>2014-04-15T09:47:05Z</time>
      </trkpt>
      <trkpt lat="48.84541" lon="2.05454">
        <ele>96</ele>
        <time>2014-04-15T09:47:08Z</time>
      </trkpt>
      <trkpt lat="48.84543" lon="2.05442">
        <ele>96</ele>
        <time>2014-04-15T09:47:10Z</time>
      </trkpt>
      <trkpt lat="48.84545" lon="2.05416">
        <ele>96</ele>
        <time>2014-04-15T09:47:15Z</time>
      </trkpt>
      <trkpt lat="48.84547" lon="2.05403">
        <ele>96</ele>
        <time>2014-04-15T09:47:17Z</time>
      </trkpt>
      <trkpt lat="48.84548" lon="2.0539">
        <ele>96</ele>
        <time>2014-04-15T09:47:19Z</time>
      </trkpt>
      <trkpt lat="48.8455" lon="2.05379">
        <ele>97</ele>
        <time>2014-04-15T09:47:21Z</time>
      </trkpt>
      <trkpt lat="48.84551" lon="2.05367">
        <ele>97</ele>
        <time>2014-04-15T09:47:23Z</time>
      </trkpt>
      <trkpt lat="48.84553" lon="2.05355">
        <ele>97</ele>
        <time>2014-04-15T09:47:25Z</time>
      </trkpt>
      <trkpt lat="48.84555" lon="2.05333">
        <ele>97</ele>
        <time>2014-04-15T09:47:29Z</time>
      </trkpt>
      <trkpt lat="48.84558" lon="2.05317">
        <ele>97</ele>
        <time>2014-04-15T09:47:32Z</time>
      </trkpt>
      <trkpt lat="48.8456" lon="2.05301">
        <ele>97</ele>
        <time>2014-04-15T09:47:35Z</time>
      </trkpt>
      <trkpt lat="48.84562" lon="2.05285">
        <ele>96</ele>
        <time>2014-04-15T09:47:38Z</time>
      </trkpt>
      <trkpt lat="48.84567" lon="2.0527">
        <ele>96</ele>
        <time>2014-04-15T09:47:41Z</time>
      </trkpt>
      <trkpt lat="48.84571" lon="2.05259">
        <ele>96</ele>
        <time>2014-04-15T09:47:43Z</time>
      </trkpt>
      <trkpt lat="48.84574" lon="2.05243">
        <ele>96</ele>
        <time>2014-04-15T09:47:46Z</time>
      </trkpt>
      <trkpt lat="48.84575" lon="2.05223">
        <ele>96</ele>
        <time>2014-04-15T09:47:50Z</time>
      </trkpt>
      <trkpt lat="48.84575" lon="2.05207">
        <ele>96</ele>
        <time>2014-04-15T09:47:53Z</time>
      </trkpt>
      <trkpt lat="48.84572" lon="2.05191">
        <ele>96</ele>
        <time>2014-04-15T09:47:56Z</time>
      </trkpt>
      <trkpt lat="48.84569" lon="2.05175">
        <ele>95</ele>
        <time>2014-04-15T09:47:59Z</time>
      </trkpt>
      <trkpt lat="48.84565" lon="2.05159">
        <ele>95</ele>
        <time>2014-04-15T09:48:02Z</time>
      </trkpt>
      <trkpt lat="48.84561" lon="2.05144">
        <ele>95</ele>
        <time>2014-04-15T09:48:05Z</time>
      </trkpt>
      <trkpt lat="48.84556" lon="2.05129">
        <ele>95</ele>
        <time>2014-04-15T09:48:08Z</time>
      </trkpt>
      <trkpt lat="48.84553" lon="2.05118">
        <ele>95</ele>
        <time>2014-04-15T09:48:10Z</time>
      </trkpt>
      <trkpt lat="48.84544" lon="2.05094">
        <ele>95</ele>
        <time>2014-04-15T09:48:15Z</time>
      </trkpt>
      <trkpt lat="48.84541" lon="2.05085">
        <ele>95</ele>
        <time>2014-04-15T09:48:17Z</time>
      </trkpt>
      <trkpt lat="48.84533" lon="2.05068">
        <ele>94</ele>
        <time>2014-04-15T09:48:21Z</time>
      </trkpt>
      <trkpt lat="48.84521" lon="2.05048">
        <ele>94</ele>
        <time>2014-04-15T09:48:26Z</time>
      </trkpt>
      <trkpt lat="48.84514" lon="2.05037">
        <ele>94</ele>
        <time>2014-04-15T09:48:29Z</time>
      </trkpt>
      <trkpt lat="48.84508" lon="2.05025">
        <ele>94</ele>
        <time>2014-04-15T09:48:32Z</time>
      </trkpt>
      <trkpt lat="48.845" lon="2.05009">
        <ele>93</ele>
        <time>2014-04-15T09:48:36Z</time>
      </trkpt>
      <trkpt lat="48.84494" lon="2.04997">
        <ele>93</ele>
        <time>2014-04-15T09:48:39Z</time>
      </trkpt>
      <trkpt lat="48.84488" lon="2.04984">
        <ele>93</ele>
        <time>2014-04-15T09:48:42Z</time>
      </trkpt>
      <trkpt lat="48.84479" lon="2.04967">
        <ele>93</ele>
        <time>2014-04-15T09:48:46Z</time>
      </trkpt>
      <trkpt lat="48.84473" lon="2.04954">
        <ele>93</ele>
        <time>2014-04-15T09:48:49Z</time>
      </trkpt>
      <trkpt lat="48.84467" lon="2.0494">
        <ele>92</ele>
        <time>2014-04-15T09:48:52Z</time>
      </trkpt>
      <trkpt lat="48.84461" lon="2.04926">
        <ele>92</ele>
        <time>2014-04-15T09:48:55Z</time>
      </trkpt>
      <trkpt lat="48.84455" lon="2.04911">
        <ele>92</ele>
        <time>2014-04-15T09:48:58Z</time>
      </trkpt>
      <trkpt lat="48.8445" lon="2.04897">
        <ele>92</ele>
        <time>2014-04-15T09:49:01Z</time>
      </trkpt>
      <trkpt lat="48.84445" lon="2.04882">
        <ele>92</ele>
        <time>2014-04-15T09:49:04Z</time>
      </trkpt>
      <trkpt lat="48.8444" lon="2.04868">
        <ele>92</ele>
        <time>2014-04-15T09:49:07Z</time>
      </trkpt>
      <trkpt lat="48.84438" lon="2.04854">
        <ele>92</ele>
        <time>2014-04-15T09:49:10Z</time>
      </trkpt>
      <trkpt lat="48.84436" lon="2.04839">
        <ele>92</ele>
        <time>2014-04-15T09:49:13Z</time>
      </trkpt>
      <trkpt lat="48.84432" lon="2.04826">
        <ele>92</ele>
        <time>2014-04-15T09:49:16Z</time>
      </trkpt>
      <trkpt lat="48.84427" lon="2.04762">
        <ele>92</ele>
        <time>2014-04-15T09:49:30Z</time>
      </trkpt>
      <trkpt lat="48.84425" lon="2.04743">
        <ele>92</ele>
        <time>2014-04-15T09:49:34Z</time>
      </trkpt>
      <trkpt lat="48.84424" lon="2.04728">
        <ele>92</ele>
        <time>2014-04-15T09:49:37Z</time>
      </trkpt>
      <trkpt lat="48.84423" lon="2.04714">
        <ele>91</ele>
        <time>2014-04-15T09:49:40Z</time>
      </trkpt>
      <trkpt lat="48.84421" lon="2.04702">
        <ele>91</ele>
        <time>2014-04-15T09:49:42Z</time>
      </trkpt>
      <trkpt lat="48.84419" lon="2.04685">
        <ele>91</ele>
        <time>2014-04-15T09:49:45Z</time>
      </trkpt>
      <trkpt lat="48.84415" lon="2.04664">
        <ele>91</ele>
        <time>2014-04-15T09:49:49Z</time>
      </trkpt>
      <trkpt lat="48.84413" lon="2.04648">
        <ele>91</ele>
        <time>2014-04-15T09:49:52Z</time>
      </trkpt>
      <trkpt lat="48.84409" lon="2.04632">
        <ele>91</ele>
        <time>2014-04-15T09:49:55Z</time>
      </trkpt>
      <trkpt lat="48.84406" lon="2.04617">
        <ele>91</ele>
        <time>2014-04-15T09:49:58Z</time>
      </trkpt>
      <trkpt lat="48.84401" lon="2.04595">
        <ele>91</ele>
        <time>2014-04-15T09:50:02Z</time>
      </trkpt>
      <trkpt lat="48.84399" lon="2.0458">
        <ele>91</ele>
        <time>2014-04-15T09:50:05Z</time>
      </trkpt>
      <trkpt lat="48.84396" lon="2.04566">
        <ele>91</ele>
        <time>2014-04-15T09:50:08Z</time>
      </trkpt>
      <trkpt lat="48.84386" lon="2.04501">
        <ele>91</ele>
        <time>2014-04-15T09:50:21Z</time>
      </trkpt>
      <trkpt lat="48.84387" lon="2.04464">
        <ele>91</ele>
        <time>2014-04-15T09:50:28Z</time>
      </trkpt>
      <trkpt lat="48.84388" lon="2.04449">
        <ele>91</ele>
        <time>2014-04-15T09:50:31Z</time>
      </trkpt>
      <trkpt lat="48.84389" lon="2.04435">
        <ele>91</ele>
        <time>2014-04-15T09:50:34Z</time>
      </trkpt>
      <trkpt lat="48.84389" lon="2.0442">
        <ele>91</ele>
        <time>2014-04-15T09:50:37Z</time>
      </trkpt>
      <trkpt lat="48.84388" lon="2.04405">
        <ele>91</ele>
        <time>2014-04-15T09:50:40Z</time>
      </trkpt>
      <trkpt lat="48.84388" lon="2.04391">
        <ele>91</ele>
        <time>2014-04-15T09:50:43Z</time>
      </trkpt>
      <trkpt lat="48.84386" lon="2.04375">
        <ele>91</ele>
        <time>2014-04-15T09:50:46Z</time>
      </trkpt>
      <trkpt lat="48.84385" lon="2.04361">
        <ele>91</ele>
        <time>2014-04-15T09:50:49Z</time>
      </trkpt>
      <trkpt lat="48.84385" lon="2.04346">
        <ele>91</ele>
        <time>2014-04-15T09:50:52Z</time>
      </trkpt>
      <trkpt lat="48.84385" lon="2.04332">
        <ele>91</ele>
        <time>2014-04-15T09:50:55Z</time>
      </trkpt>
      <trkpt lat="48.84385" lon="2.04319">
        <ele>91</ele>
        <time>2014-04-15T09:50:58Z</time>
      </trkpt>
      <trkpt lat="48.84385" lon="2.04306">
        <ele>91</ele>
        <time>2014-04-15T09:51:01Z</time>
      </trkpt>
      <trkpt lat="48.84384" lon="2.04292">
        <ele>91</ele>
        <time>2014-04-15T09:51:05Z</time>
      </trkpt>
      <trkpt lat="48.84385" lon="2.04276">
        <ele>91</ele>
        <time>2014-04-15T09:51:09Z</time>
      </trkpt>
      <trkpt lat="48.84385" lon="2.04268">
        <ele>90</ele>
        <time>2014-04-15T09:51:11Z</time>
      </trkpt>
      <trkpt lat="48.84386" lon="2.04248">
        <ele>90</ele>
        <time>2014-04-15T09:51:16Z</time>
      </trkpt>
      <trkpt lat="48.84388" lon="2.04235">
        <ele>90</ele>
        <time>2014-04-15T09:51:19Z</time>
      </trkpt>
      <trkpt lat="48.8439" lon="2.04221">
        <ele>89</ele>
        <time>2014-04-15T09:51:22Z</time>
      </trkpt>
      <trkpt lat="48.84392" lon="2.04207">
        <ele>89</ele>
        <time>2014-04-15T09:51:25Z</time>
      </trkpt>
      <trkpt lat="48.84393" lon="2.04194">
        <ele>88</ele>
        <time>2014-04-15T09:51:28Z</time>
      </trkpt>
      <trkpt lat="48.84391" lon="2.04181">
        <ele>88</ele>
        <time>2014-04-15T09:51:33Z</time>
      </trkpt>
      <trkpt lat="48.84397" lon="2.04153">
        <ele>86</ele>
        <time>2014-04-15T09:51:47Z</time>
      </trkpt>
      <trkpt lat="48.84389" lon="2.04141">
        <ele>82</ele>
        <time>2014-04-15T09:53:13Z</time>
      </trkpt>
      <trkpt lat="48.84376" lon="2.04153">
        <ele>82</ele>
        <time>2014-04-15T09:53:23Z</time>
      </trkpt>
      <trkpt lat="48.84362" lon="2.04167">
        <ele>82</ele>
        <time>2014-04-15T09:53:33Z</time>
      </trkpt>
      <trkpt lat="48.84346" lon="2.04179">
        <ele>81</ele>
        <time>2014-04-15T09:53:44Z</time>
      </trkpt>
      <trkpt lat="48.8433" lon="2.04191">
        <ele>80</ele>
        <time>2014-04-15T09:54:00Z</time>
      </trkpt>
      <trkpt lat="48.84315" lon="2.04199">
        <ele>79</ele>
        <time>2014-04-15T09:54:11Z</time>
      </trkpt>
      <trkpt lat="48.84305" lon="2.04202">
        <ele>78</ele>
        <time>2014-04-15T09:54:16Z</time>
      </trkpt>
      <trkpt lat="48.84297" lon="2.04204">
        <ele>78</ele>
        <time>2014-04-15T09:54:20Z</time>
      </trkpt>
      <trkpt lat="48.84274" lon="2.04205">
        <ele>77</ele>
        <time>2014-04-15T09:54:41Z</time>
      </trkpt>
      <trkpt lat="48.84258" lon="2.04203">
        <ele>78</ele>
        <time>2014-04-15T09:54:57Z</time>
      </trkpt>
      <trkpt lat="48.84242" lon="2.04202">
        <ele>79</ele>
        <time>2014-04-15T09:55:06Z</time>
      </trkpt>
      <trkpt lat="48.84217" lon="2.04201">
        <ele>79</ele>
        <time>2014-04-15T09:55:14Z</time>
      </trkpt>
      <trkpt lat="48.84195" lon="2.04207">
        <ele>78</ele>
        <time>2014-04-15T09:55:21Z</time>
      </trkpt>
      <trkpt lat="48.84181" lon="2.0421">
        <ele>78</ele>
        <time>2014-04-15T09:55:25Z</time>
      </trkpt>
      <trkpt lat="48.8416" lon="2.0421">
        <ele>77</ele>
        <time>2014-04-15T09:55:31Z</time>
      </trkpt>
      <trkpt lat="48.84149" lon="2.04212">
        <ele>77</ele>
        <time>2014-04-15T09:55:34Z</time>
      </trkpt>
      <trkpt lat="48.84138" lon="2.04214">
        <ele>77</ele>
        <time>2014-04-15T09:55:37Z</time>
      </trkpt>
      <trkpt lat="48.84128" lon="2.04216">
        <ele>77</ele>
        <time>2014-04-15T09:55:40Z</time>
      </trkpt>
      <trkpt lat="48.84118" lon="2.04217">
        <ele>78</ele>
        <time>2014-04-15T09:55:43Z</time>
      </trkpt>
      <trkpt lat="48.841" lon="2.0423">
        <ele>79</ele>
        <time>2014-04-15T09:55:53Z</time>
      </trkpt>
      <trkpt lat="48.84093" lon="2.04243">
        <ele>80</ele>
        <time>2014-04-15T09:55:57Z</time>
      </trkpt>
      <trkpt lat="48.84087" lon="2.04254">
        <ele>80</ele>
        <time>2014-04-15T09:56:00Z</time>
      </trkpt>
      <trkpt lat="48.84081" lon="2.04265">
        <ele>81</ele>
        <time>2014-04-15T09:56:03Z</time>
      </trkpt>
      <trkpt lat="48.84075" lon="2.04277">
        <ele>81</ele>
        <time>2014-04-15T09:56:06Z</time>
      </trkpt>
      <trkpt lat="48.84068" lon="2.0429">
        <ele>81</ele>
        <time>2014-04-15T09:56:09Z</time>
      </trkpt>
      <trkpt lat="48.84062" lon="2.04304">
        <ele>82</ele>
        <time>2014-04-15T09:56:12Z</time>
      </trkpt>
      <trkpt lat="48.84055" lon="2.04317">
        <ele>82</ele>
        <time>2014-04-15T09:56:15Z</time>
      </trkpt>
      <trkpt lat="48.84048" lon="2.0433">
        <ele>82</ele>
        <time>2014-04-15T09:56:18Z</time>
      </trkpt>
      <trkpt lat="48.84041" lon="2.04342">
        <ele>82</ele>
        <time>2014-04-15T09:56:21Z</time>
      </trkpt>
      <trkpt lat="48.84035" lon="2.04355">
        <ele>82</ele>
        <time>2014-04-15T09:56:24Z</time>
      </trkpt>
      <trkpt lat="48.84028" lon="2.04368">
        <ele>83</ele>
        <time>2014-04-15T09:56:27Z</time>
      </trkpt>
      <trkpt lat="48.84023" lon="2.04379">
        <ele>82</ele>
        <time>2014-04-15T09:56:30Z</time>
      </trkpt>
      <trkpt lat="48.84016" lon="2.0439">
        <ele>82</ele>
        <time>2014-04-15T09:56:34Z</time>
      </trkpt>
      <trkpt lat="48.8401" lon="2.04401">
        <ele>82</ele>
        <time>2014-04-15T09:56:38Z</time>
      </trkpt>
      <trkpt lat="48.84004" lon="2.04412">
        <ele>82</ele>
        <time>2014-04-15T09:56:42Z</time>
      </trkpt>
      <trkpt lat="48.83999" lon="2.04421">
        <ele>82</ele>
        <time>2014-04-15T09:56:45Z</time>
      </trkpt>
      <trkpt lat="48.83993" lon="2.04432">
        <ele>82</ele>
        <time>2014-04-15T09:56:48Z</time>
      </trkpt>
      <trkpt lat="48.83988" lon="2.04443">
        <ele>82</ele>
        <time>2014-04-15T09:56:51Z</time>
      </trkpt>
      <trkpt lat="48.83981" lon="2.04455">
        <ele>81</ele>
        <time>2014-04-15T09:56:54Z</time>
      </trkpt>
      <trkpt lat="48.83973" lon="2.0447">
        <ele>81</ele>
        <time>2014-04-15T09:56:58Z</time>
      </trkpt>
      <trkpt lat="48.83967" lon="2.0448">
        <ele>80</ele>
        <time>2014-04-15T09:57:01Z</time>
      </trkpt>
      <trkpt lat="48.8396" lon="2.0449">
        <ele>80</ele>
        <time>2014-04-15T09:57:04Z</time>
      </trkpt>
      <trkpt lat="48.83954" lon="2.045">
        <ele>79</ele>
        <time>2014-04-15T09:57:07Z</time>
      </trkpt>
      <trkpt lat="48.83948" lon="2.0451">
        <ele>79</ele>
        <time>2014-04-15T09:57:10Z</time>
      </trkpt>
      <trkpt lat="48.83942" lon="2.04521">
        <ele>79</ele>
        <time>2014-04-15T09:57:13Z</time>
      </trkpt>
      <trkpt lat="48.83936" lon="2.04531">
        <ele>79</ele>
        <time>2014-04-15T09:57:16Z</time>
      </trkpt>
      <trkpt lat="48.8393" lon="2.04543">
        <ele>78</ele>
        <time>2014-04-15T09:57:19Z</time>
      </trkpt>
      <trkpt lat="48.83925" lon="2.04555">
        <ele>78</ele>
        <time>2014-04-15T09:57:22Z</time>
      </trkpt>
      <trkpt lat="48.83915" lon="2.04569">
        <ele>77</ele>
        <time>2014-04-15T09:57:29Z</time>
      </trkpt>
      <trkpt lat="48.83899" lon="2.04563">
        <ele>77</ele>
        <time>2014-04-15T09:57:44Z</time>
      </trkpt>
      <trkpt lat="48.83879" lon="2.04538">
        <ele>78</ele>
        <time>2014-04-15T09:58:09Z</time>
      </trkpt>
      <trkpt lat="48.83866" lon="2.04525">
        <ele>79</ele>
        <time>2014-04-15T09:58:19Z</time>
      </trkpt>
      <trkpt lat="48.83849" lon="2.04505">
        <ele>80</ele>
        <time>2014-04-15T09:58:32Z</time>
      </trkpt>
      <trkpt lat="48.83832" lon="2.04487">
        <ele>81</ele>
        <time>2014-04-15T09:58:45Z</time>
      </trkpt>
      <trkpt lat="48.83819" lon="2.04472">
        <ele>82</ele>
        <time>2014-04-15T09:58:58Z</time>
      </trkpt>
      <trkpt lat="48.83805" lon="2.04458">
        <ele>83</ele>
        <time>2014-04-15T09:59:10Z</time>
      </trkpt>
      <trkpt lat="48.83795" lon="2.04458">
        <ele>84</ele>
        <time>2014-04-15T09:59:35Z</time>
      </trkpt>
      <trkpt lat="48.83783" lon="2.04441">
        <ele>84</ele>
        <time>2014-04-15T09:59:44Z</time>
      </trkpt>
      <trkpt lat="48.83769" lon="2.04424">
        <ele>84</ele>
        <time>2014-04-15T10:00:21Z</time>
      </trkpt>
      <trkpt lat="48.8376" lon="2.04416">
        <ele>84</ele>
        <time>2014-04-15T10:00:29Z</time>
      </trkpt>
      <trkpt lat="48.83745" lon="2.04405">
        <ele>84</ele>
        <time>2014-04-15T10:00:43Z</time>
      </trkpt>
      <trkpt lat="48.83737" lon="2.04393">
        <ele>84</ele>
        <time>2014-04-15T10:00:55Z</time>
      </trkpt>
      <trkpt lat="48.8373" lon="2.04384">
        <ele>84</ele>
        <time>2014-04-15T10:00:59Z</time>
      </trkpt>
      <trkpt lat="48.83723" lon="2.04377">
        <ele>83</ele>
        <time>2014-04-15T10:01:04Z</time>
      </trkpt>
      <trkpt lat="48.83711" lon="2.04372">
        <ele>83</ele>
        <time>2014-04-15T10:01:13Z</time>
      </trkpt>
      <trkpt lat="48.83698" lon="2.04368">
        <ele>81</ele>
        <time>2014-04-15T10:01:29Z</time>
      </trkpt>
      <trkpt lat="48.83697" lon="2.04359">
        <ele>81</ele>
        <time>2014-04-15T10:01:55Z</time>
      </trkpt>
      <trkpt lat="48.83691" lon="2.04355">
        <ele>81</ele>
        <time>2014-04-15T10:01:58Z</time>
      </trkpt>
      <trkpt lat="48.83687" lon="2.04353">
        <ele>81</ele>
        <time>2014-04-15T10:02:00Z</time>
      </trkpt>
      <trkpt lat="48.83681" lon="2.04352">
        <ele>81</ele>
        <time>2014-04-15T10:02:03Z</time>
      </trkpt>
      <trkpt lat="48.83667" lon="2.04352">
        <ele>82</ele>
        <time>2014-04-15T10:02:13Z</time>
      </trkpt>
      <trkpt lat="48.83656" lon="2.04353">
        <ele>82</ele>
        <time>2014-04-15T10:02:21Z</time>
      </trkpt>
      <trkpt lat="48.8364" lon="2.0435">
        <ele>83</ele>
        <time>2014-04-15T10:02:32Z</time>
      </trkpt>
      <trkpt lat="48.83629" lon="2.04349">
        <ele>83</ele>
        <time>2014-04-15T10:02:39Z</time>
      </trkpt>
      <trkpt lat="48.83621" lon="2.04349">
        <ele>83</ele>
        <time>2014-04-15T10:02:45Z</time>
      </trkpt>
      <trkpt lat="48.8361" lon="2.04347">
        <ele>82</ele>
        <time>2014-04-15T10:02:52Z</time>
      </trkpt>
      <trkpt lat="48.83594" lon="2.04348">
        <ele>82</ele>
        <time>2014-04-15T10:03:03Z</time>
      </trkpt>
      <trkpt lat="48.83583" lon="2.04351">
        <ele>81</ele>
        <time>2014-04-15T10:03:10Z</time>
      </trkpt>
      <trkpt lat="48.83567" lon="2.04354">
        <ele>80</ele>
        <time>2014-04-15T10:03:21Z</time>
      </trkpt>
      <trkpt lat="48.83551" lon="2.04359">
        <ele>80</ele>
        <time>2014-04-15T10:03:37Z</time>
      </trkpt>
      <trkpt lat="48.83536" lon="2.04362">
        <ele>79</ele>
        <time>2014-04-15T10:03:47Z</time>
      </trkpt>
      <trkpt lat="48.8352" lon="2.04369">
        <ele>80</ele>
        <time>2014-04-15T10:03:57Z</time>
      </trkpt>
      <trkpt lat="48.83508" lon="2.04385">
        <ele>80</ele>
        <time>2014-04-15T10:04:11Z</time>
      </trkpt>
      <trkpt lat="48.83496" lon="2.04413">
        <ele>81</ele>
        <time>2014-04-15T10:04:24Z</time>
      </trkpt>
      <trkpt lat="48.83488" lon="2.04433">
        <ele>82</ele>
        <time>2014-04-15T10:04:33Z</time>
      </trkpt>
      <trkpt lat="48.83479" lon="2.04465">
        <ele>82</ele>
        <time>2014-04-15T10:04:47Z</time>
      </trkpt>
      <trkpt lat="48.83478" lon="2.04489">
        <ele>82</ele>
        <time>2014-04-15T10:04:57Z</time>
      </trkpt>
      <trkpt lat="48.83477" lon="2.04514">
        <ele>81</ele>
        <time>2014-04-15T10:05:03Z</time>
      </trkpt>
      <trkpt lat="48.83467" lon="2.04512">
        <ele>78</ele>
        <time>2014-04-15T10:05:37Z</time>
      </trkpt>
      <trkpt lat="48.83461" lon="2.0449">
        <ele>77</ele>
        <time>2014-04-15T10:05:45Z</time>
      </trkpt>
      <trkpt lat="48.83458" lon="2.04466">
        <ele>73</ele>
        <time>2014-04-15T10:05:56Z</time>
      </trkpt>
      <trkpt lat="48.83454" lon="2.0444">
        <ele>70</ele>
        <time>2014-04-15T10:06:12Z</time>
      </trkpt>
      <trkpt lat="48.83446" lon="2.04417">
        <ele>66</ele>
        <time>2014-04-15T10:06:23Z</time>
      </trkpt>
      <trkpt lat="48.83435" lon="2.04391">
        <ele>65</ele>
        <time>2014-04-15T10:06:36Z</time>
      </trkpt>
      <trkpt lat="48.8342" lon="2.04379">
        <ele>63</ele>
        <time>2014-04-15T10:06:46Z</time>
      </trkpt>
      <trkpt lat="48.83406" lon="2.04368">
        <ele>62</ele>
        <time>2014-04-15T10:06:56Z</time>
      </trkpt>
      <trkpt lat="48.8339" lon="2.04359">
        <ele>61</ele>
        <time>2014-04-15T10:07:06Z</time>
      </trkpt>
      <trkpt lat="48.83375" lon="2.04349">
        <ele>60</ele>
        <time>2014-04-15T10:07:17Z</time>
      </trkpt>
      <trkpt lat="48.83361" lon="2.04361">
        <ele>59</ele>
        <time>2014-04-15T10:07:33Z</time>
      </trkpt>
      <trkpt lat="48.83355" lon="2.04376">
        <ele>58</ele>
        <time>2014-04-15T10:07:59Z</time>
      </trkpt>
      <trkpt lat="48.83357" lon="2.04389">
        <ele>45</ele>
        <time>2014-04-15T10:11:07Z</time>
      </trkpt>
      <trkpt lat="48.8337" lon="2.04372">
        <ele>27</ele>
        <time>2014-04-15T10:14:32Z</time>
      </trkpt>
      <trkpt lat="48.83363" lon="2.0436">
        <ele>28</ele>
        <time>2014-04-15T10:15:53Z</time>
      </trkpt>
      <trkpt lat="48.83348" lon="2.04378">
        <ele>28</ele>
        <time>2014-04-15T10:17:01Z</time>
      </trkpt>
      <trkpt lat="48.8335" lon="2.04381">
        <ele>42</ele>
        <time>2014-04-15T10:18:10Z</time>
      </trkpt>
      <trkpt lat="48.83345" lon="2.04347">
        <ele>43</ele>
        <time>2014-04-15T10:18:59Z</time>
      </trkpt>
      <trkpt lat="48.83353" lon="2.04381">
        <ele>43</ele>
        <time>2014-04-15T10:22:19Z</time>
      </trkpt>
      <trkpt lat="48.83344" lon="2.0437">
        <ele>42</ele>
        <time>2014-04-15T10:23:17Z</time>
      </trkpt>
    </trkseg>
  </trk>
</gpx>